Station Historical Data
Daily Summary for June 13, 2017 Units:  English    Metric   Both
« Previous Day
Next Day »
Daily Weekly Monthly Yearly Custom
  High: Low: Average:
Temperature: 87.7 °F 68.5 °F 76.4 °F
Dew Point: 71.1 °F 64.9 °F 67.5 °F
Humidity: 93% 51% 76%
Wind Speed: 1.0mph 0.0mph 0mph
Wind Gust: 3.0mph - -
Wind- - SSW
Pressure: 30.15 in 30.00 in -
Precipitation: 0.53 in    
Historical Graphs
 
 
Tabular Data for June 13, 2017
Time Temperature Dew Point Pressure Wind Wind Speed Wind Gust Humidity Rainfall Rate (Hourly) solar Conditions
00:00 72.1 °F 67.4 °F 30.11 in Calm     85% 0.00 in WeatherDisplay:10.37 W/m2 CLR
00:10 72.1 °F 67.3 °F 30.11 in Calm     85% 0.00 in WeatherDisplay:10.37 W/m2 CLR
00:20 71.9 °F 67.2 °F 30.11 in Calm     85% 0.00 in WeatherDisplay:10.37 W/m2 CLR
00:30 71.9 °F 67.1 °F 30.11 in Calm     85% 0.00 in WeatherDisplay:10.37 W/m2 CLR
00:40 71.8 °F 67.0 °F 30.11 in Calm     85% 0.00 in WeatherDisplay:10.37 W/m2 CLR
00:50 71.6 °F 67.2 °F 30.11 in Calm     86% 0.00 in WeatherDisplay:10.37 W/m2 CLR
01:00 71.4 °F 67.0 °F 30.11 in Calm     86% 0.00 in WeatherDisplay:10.37 W/m2 CLR
01:10 71.1 °F 67.1 °F 30.11 in Calm     87% 0.00 in WeatherDisplay:10.37 W/m2 CLR
01:20 70.8 °F 66.8 °F 30.11 in Calm     87% 0.00 in WeatherDisplay:10.37 W/m2 CLR
01:30 70.5 °F 66.8 °F 30.11 in Calm     88% 0.00 in WeatherDisplay:10.37 W/m2 CLR
01:40 70.4 °F 67.0 °F 30.10 in Calm     89% 0.00 in WeatherDisplay:10.37 W/m2 CLR
01:50 70.2 °F 66.8 °F 30.10 in Calm     89% 0.00 in WeatherDisplay:10.37 W/m2 CLR
02:00 70.1 °F 66.7 °F 30.11 in Calm     89% 0.00 in WeatherDisplay:10.37 W/m2 CLR
02:10 69.1 °F 65.7 °F 30.10 in Calm     89% 0.00 in WeatherDisplay:10.37 W/m2 CLR
02:20 69.1 °F 65.7 °F 30.11 in Calm     89% 0.00 in WeatherDisplay:10.37 W/m2 CLR
02:30 69.1 °F 65.7 °F 30.11 in Calm     89% 0.00 in WeatherDisplay:10.37 W/m2 CLR
02:40 69.1 °F 65.7 °F 30.11 in Calm     89% 0.00 in WeatherDisplay:10.37 W/m2 CLR
02:50 69.1 °F 65.7 °F 30.11 in Calm     89% 0.00 in WeatherDisplay:10.37 W/m2 CLR
03:00 69.1 °F 65.7 °F 30.10 in Calm     89% 0.00 in WeatherDisplay:10.37 W/m2 CLR
03:10 69.1 °F 65.7 °F 30.10 in Calm     89% 0.00 in WeatherDisplay:10.37 W/m2 CLR
03:20 69.1 °F 65.7 °F 30.10 in Calm     89% 0.00 in WeatherDisplay:10.37 W/m2 CLR
03:30 69.1 °F 65.7 °F 30.10 in Calm     89% 0.00 in WeatherDisplay:10.37 W/m2 CLR
03:40 69.1 °F 65.7 °F 30.10 in Calm     89% 0.00 in WeatherDisplay:10.37 W/m2 CLR
03:50 69.1 °F 65.7 °F 30.10 in Calm     89% 0.00 in WeatherDisplay:10.37 W/m2 CLR
04:00 69.1 °F 65.7 °F 30.10 in Calm     89% 0.00 in WeatherDisplay:10.37 W/m2 CLR
04:10 69.1 °F 65.7 °F 30.10 in Calm     89% 0.00 in WeatherDisplay:10.37 W/m2 CLR
04:20 69.1 °F 65.7 °F 30.10 in Calm     89% 0.00 in WeatherDisplay:10.37 W/m2 CLR
04:30 69.1 °F 65.7 °F 30.10 in Calm     89% 0.00 in WeatherDisplay:10.37 W/m2 CLR
04:40 69.1 °F 65.7 °F 30.10 in Calm     89% 0.00 in WeatherDisplay:10.37 W/m2 CLR
04:50 69.1 °F 65.7 °F 30.10 in Calm     89% 0.00 in WeatherDisplay:10.37 W/m2 CLR
05:00 69.1 °F 65.7 °F 30.10 in Calm     89% 0.00 in WeatherDisplay:10.37 W/m2 CLR
05:10 69.1 °F 65.7 °F 30.10 in Calm     89% 0.00 in WeatherDisplay:10.37 W/m2 CLR
05:20 69.1 °F 65.7 °F 30.11 in Calm     89% 0.00 in WeatherDisplay:10.37 W/m2 CLR
05:30 69.1 °F 65.7 °F 30.11 in Calm     89% 0.00 in WeatherDisplay:10.37 W/m2 CLR
05:40 69.1 °F 65.7 °F 30.11 in Calm     89% 0.00 in WeatherDisplay:10.37 W/m2 CLR
05:50 69.1 °F 65.7 °F 30.11 in Calm     89% 0.00 in WeatherDisplay:10.37 W/m2 CLR
06:00 69.1 °F 65.7 °F 30.11 in Calm     89% 0.00 in WeatherDisplay:10.37 W/m2 CLR
06:10 69.1 °F 65.7 °F 30.11 in Calm     89% 0.00 in WeatherDisplay:10.37 W/m2 CLR
06:30 69.1 °F 65.7 °F 30.12 in Calm     89% 0.00 in WeatherDisplay:10.37 W/m2 CLR
06:40 69.1 °F 65.7 °F 30.12 in Calm     89% 0.00 in WeatherDisplay:10.37 W/m2 CLR
06:50 69.1 °F 65.7 °F 30.12 in Calm     89% 0.00 in WeatherDisplay:10.37 W/m2 CLR
07:00 69.1 °F 65.7 °F 30.12 in Calm     89% 0.00 in WeatherDisplay:10.37 W/m2 CLR
07:10 69.1 °F 65.7 °F 30.12 in Calm     89% 0.00 in WeatherDisplay:10.37 W/m2 CLR
07:20 69.1 °F 65.7 °F 30.13 in Calm     89% 0.00 in WeatherDisplay:10.37 W/m2 CLR
07:30 69.1 °F 65.7 °F 30.13 in Calm     89% 0.00 in WeatherDisplay:10.37 W/m2 CLR
07:40 69.1 °F 65.7 °F 30.13 in Calm     89% 0.00 in WeatherDisplay:10.37 W/m2 CLR
07:50 69.1 °F 65.7 °F 30.13 in Calm     89% 0.00 in WeatherDisplay:10.37 W/m2 CLR
08:00 69.1 °F 65.7 °F 30.13 in Calm     89% 0.00 in WeatherDisplay:10.37 W/m2 CLR
08:10 69.1 °F 65.7 °F 30.13 in Calm     89% 0.00 in WeatherDisplay:10.37 W/m2 CLR
08:20 69.1 °F 65.7 °F 30.14 in Calm     89% 0.00 in WeatherDisplay:10.37 W/m2 CLR
08:30 69.1 °F 65.7 °F 30.14 in Calm     89% 0.00 in WeatherDisplay:10.37 W/m2 CLR
08:40 71.1 °F 68.9 °F 30.14 in Calm     93% 0.00 in WeatherDisplay:10.37 W/m2 CLR
08:50 71.6 °F 69.5 °F 30.14 in Calm     93% 0.00 in WeatherDisplay:10.37 W/m2 CLR
09:00 72.1 °F 69.4 °F 30.14 in Calm     91% 0.00 in WeatherDisplay:10.37 W/m2 CLR
09:10 73.1 °F 69.0 °F 30.14 in Calm     87% 0.00 in WeatherDisplay:10.37 W/m2 CLR
09:20 74.1 °F 69.0 °F 30.15 in Calm     84% 0.00 in WeatherDisplay:10.37 W/m2 CLR
09:30 75.1 °F 68.9 °F 30.15 in Calm   1.0 mph 81% 0.00 in WeatherDisplay:10.37 W/m2 CLR
09:40 75.6 °F 68.6 °F 30.15 in Calm   2.0 mph 79% 0.00 in WeatherDisplay:10.37 W/m2 CLR
09:50 76.1 °F 68.7 °F 30.14 in Calm   2.0 mph 78% 0.00 in WeatherDisplay:10.37 W/m2 CLR
10:00 76.8 °F 69.5 °F 30.15 in Calm   2.0 mph 78% 0.00 in WeatherDisplay:10.37 W/m2 CLR
10:10 78.1 °F 68.8 °F 30.14 in South 1.0 mph 2.0 mph 73% 0.00 in WeatherDisplay:10.37 W/m2 CLR
10:20 79.3 °F 70.7 °F 30.14 in Calm   2.0 mph 75% 0.00 in WeatherDisplay:10.37 W/m2 CLR
10:30 80.3 °F 69.6 °F 30.14 in Calm   1.0 mph 70% 0.00 in WeatherDisplay:10.37 W/m2 CLR
10:40 79.6 °F 69.0 °F 30.14 in Calm   1.0 mph 70% 0.00 in WeatherDisplay:10.37 W/m2 CLR
10:50 78.8 °F 69.4 °F 30.13 in Calm   1.0 mph 73% 0.00 in WeatherDisplay:10.37 W/m2 CLR
11:00 78.6 °F 68.4 °F 30.13 in Calm   1.0 mph 71% 0.00 in WeatherDisplay:10.37 W/m2 CLR
11:10 79.3 °F 68.7 °F 30.13 in Calm   1.0 mph 70% 0.00 in WeatherDisplay:10.37 W/m2 CLR
11:20 79.2 °F 67.8 °F 30.14 in Calm   1.0 mph 68% 0.00 in WeatherDisplay:10.37 W/m2 CLR
11:30 79.7 °F 67.7 °F 30.14 in Calm   1.0 mph 67% 0.00 in WeatherDisplay:10.37 W/m2 CLR
11:40 80.7 °F 68.3 °F 30.14 in Calm   1.0 mph 66% 0.00 in WeatherDisplay:10.37 W/m2 CLR
11:50 81.5 °F 67.6 °F 30.13 in Calm   1.0 mph 63% 0.00 in WeatherDisplay:10.37 W/m2 CLR
12:00 82.3 °F 68.9 °F 30.13 in Calm   1.0 mph 64% 0.00 in WeatherDisplay:10.37 W/m2 CLR
12:10 82.7 °F 68.4 °F 30.12 in Calm   1.0 mph 62% 0.00 in WeatherDisplay:10.37 W/m2 CLR
12:20 83.3 °F 68.0 °F 30.12 in Calm   1.0 mph 60% 0.00 in WeatherDisplay:10.37 W/m2 CLR
12:30 83.5 °F 67.2 °F 30.11 in Calm   2.0 mph 58% 0.00 in WeatherDisplay:10.37 W/m2 CLR
12:40 84.1 °F 68.2 °F 30.11 in Calm   2.0 mph 59% 0.00 in WeatherDisplay:10.37 W/m2 CLR
12:50 85.5 °F 68.5 °F 30.10 in Calm   1.0 mph 57% 0.00 in WeatherDisplay:10.37 W/m2 CLR
13:00 85.3 °F 69.4 °F 30.10 in NW 1.0 mph 1.0 mph 59% 0.00 in WeatherDisplay:10.37 W/m2 CLR
13:10 85.3 °F 67.3 °F 30.09 in Calm   3.0 mph 55% 0.00 in WeatherDisplay:10.37 W/m2 CLR
13:20 85.9 °F 68.4 °F 30.09 in Calm   1.0 mph 56% 0.00 in WeatherDisplay:10.37 W/m2 CLR
13:30 85.2 °F 68.7 °F 30.09 in Calm   1.0 mph 58% 0.00 in WeatherDisplay:10.37 W/m2 CLR
13:40 83.6 °F 68.7 °F 30.09 in Calm   1.0 mph 61% 0.00 in WeatherDisplay:10.37 W/m2 CLR
13:50 83.1 °F 69.7 °F 30.08 in Calm     64% 0.00 in WeatherDisplay:10.37 W/m2 CLR
14:00 83.9 °F 69.9 °F 30.08 in Calm   1.0 mph 63% 0.00 in WeatherDisplay:10.37 W/m2 CLR
14:10 85.4 °F 69.0 °F 30.08 in Calm     58% 0.00 in WeatherDisplay:10.37 W/m2 CLR
14:20 85.2 °F 68.8 °F 30.07 in Calm   1.0 mph 58% 0.00 in WeatherDisplay:10.37 W/m2 CLR
14:30 84.5 °F 70.0 °F 30.07 in Calm   2.0 mph 62% 0.00 in WeatherDisplay:10.37 W/m2 CLR
14:40 83.8 °F 67.5 °F 30.07 in SW 1.0 mph 1.0 mph 58% 0.00 in WeatherDisplay:10.37 W/m2 CLR
14:50 83.8 °F 67.4 °F 30.06 in Calm   1.0 mph 58% 0.00 in WeatherDisplay:10.37 W/m2 CLR
15:00 83.7 °F 66.8 °F 30.05 in Calm   1.0 mph 57% 0.00 in WeatherDisplay:10.37 W/m2 CLR
15:10 83.2 °F 68.3 °F 30.05 in Calm     61% 0.00 in WeatherDisplay:10.37 W/m2 CLR
15:20 83.9 °F 67.5 °F 30.04 in Calm   1.0 mph 58% 0.00 in WeatherDisplay:10.37 W/m2 CLR
15:30 84.2 °F 67.3 °F 30.04 in Calm   1.0 mph 57% 0.00 in WeatherDisplay:10.37 W/m2 CLR
15:40 84.8 °F 67.9 °F 30.03 in Calm   1.0 mph 57% 0.00 in WeatherDisplay:10.37 W/m2 CLR
15:50 85.1 °F 64.9 °F 30.03 in North 1.0 mph 1.0 mph 51% 0.00 in WeatherDisplay:10.37 W/m2 CLR
16:00 85.4 °F 66.3 °F 30.02 in Calm   2.0 mph 53% 0.00 in WeatherDisplay:10.37 W/m2 CLR
16:10 85.3 °F 68.4 °F 30.02 in Calm     57% 0.00 in WeatherDisplay:10.37 W/m2 CLR
16:20 84.7 °F 67.3 °F 30.02 in Calm     56% 0.00 in WeatherDisplay:10.37 W/m2 CLR
16:30 84.6 °F 67.2 °F 30.02 in Calm     56% 0.00 in WeatherDisplay:10.37 W/m2 CLR
16:40 84.9 °F 70.4 °F 30.02 in Calm     62% 0.00 in WeatherDisplay:10.37 W/m2 CLR
16:50 85.7 °F 67.6 °F 30.01 in Calm   1.0 mph 55% 0.00 in WeatherDisplay:10.37 W/m2 CLR
17:00 87.0 °F 68.8 °F 30.01 in Calm     55% 0.00 in WeatherDisplay:10.37 W/m2 CLR
17:10 87.5 °F 69.3 °F 30.01 in Calm   1.0 mph 55% 0.00 in WeatherDisplay:10.37 W/m2 CLR
17:20 87.6 °F 68.4 °F 30.01 in Calm     53% 0.00 in WeatherDisplay:10.37 W/m2 CLR
17:30 87.7 °F 67.3 °F 30.00 in Calm     51% 0.00 in WeatherDisplay:10.37 W/m2 CLR
17:40 86.8 °F 68.2 °F 30.00 in Calm   1.0 mph 54% 0.00 in WeatherDisplay:10.37 W/m2 CLR
17:50 86.6 °F 67.5 °F 30.00 in Calm   1.0 mph 53% 0.00 in WeatherDisplay:10.37 W/m2 CLR
18:00 86.5 °F 66.2 °F 30.00 in Calm   1.0 mph 51% 0.00 in WeatherDisplay:10.37 W/m2 CLR
18:10 85.9 °F 67.9 °F 30.01 in Calm     55% 0.00 in WeatherDisplay:10.37 W/m2 CLR
18:20 84.8 °F 68.4 °F 30.00 in Calm     58% 0.00 in WeatherDisplay:10.37 W/m2 CLR
18:30 83.5 °F 69.1 °F 30.01 in Calm     62% 0.00 in WeatherDisplay:10.37 W/m2 CLR
18:40 83.2 °F 69.8 °F 30.00 in Calm     64% 0.00 in WeatherDisplay:10.37 W/m2 CLR
18:50 82.8 °F 68.9 °F 30.00 in Calm     63% 0.00 in WeatherDisplay:10.37 W/m2 CLR
19:00 82.2 °F 68.3 °F 30.00 in Calm   1.0 mph 63% 0.00 in WeatherDisplay:10.37 W/m2 CLR
19:10 81.4 °F 68.1 °F 30.00 in Calm   1.0 mph 64% 0.00 in WeatherDisplay:10.37 W/m2 CLR
19:20 81.2 °F 68.3 °F 30.01 in Calm     65% 0.00 in WeatherDisplay:10.37 W/m2 CLR
19:30 81.0 °F 69.0 °F 30.01 in Calm     67% 0.00 in WeatherDisplay:10.37 W/m2 CLR
19:40 80.7 °F 68.7 °F 30.01 in Calm     67% 0.00 in WeatherDisplay:10.37 W/m2 CLR
19:50 80.5 °F 69.0 °F 30.02 in Calm     68% 0.00 in WeatherDisplay:10.37 W/m2 CLR
20:00 80.1 °F 68.6 °F 30.02 in Calm     68% 0.00 in WeatherDisplay:10.37 W/m2 CLR
20:10 79.8 °F 68.7 °F 30.02 in Calm     69% 0.00 in WeatherDisplay:10.37 W/m2 CLR
20:20 79.6 °F 69.0 °F 30.02 in Calm     70% 0.00 in WeatherDisplay:10.37 W/m2 CLR
20:30 79.3 °F 68.7 °F 30.02 in Calm     70% 0.00 in WeatherDisplay:10.37 W/m2 CLR
20:40 79.1 °F 68.9 °F 30.03 in Calm     71% 0.00 in WeatherDisplay:10.37 W/m2 CLR
20:50 78.8 °F 68.6 °F 30.02 in Calm     71% 0.00 in WeatherDisplay:10.37 W/m2 CLR
21:00 78.6 °F 69.2 °F 30.03 in Calm     73% 0.00 in WeatherDisplay:10.37 W/m2 CLR
21:10 78.4 °F 69.0 °F 30.03 in Calm     73% 0.00 in WeatherDisplay:10.37 W/m2 CLR
21:20 78.3 °F 69.3 °F 30.03 in Calm     74% 0.00 in WeatherDisplay:10.37 W/m2 CLR
21:30 77.8 °F 71.1 °F 30.03 in WNW 1.0 mph 2.0 mph 80% 0.00 in WeatherDisplay:10.37 W/m2 CLR
21:40 75.5 °F 70.0 °F 30.04 in Calm     83% 0.00 in WeatherDisplay:10.37 W/m2 CLR
21:50 74.8 °F 69.9 °F 30.04 in Calm     85% 0.00 in WeatherDisplay:10.37 W/m2 CLR
22:00 74.2 °F 69.4 °F 30.04 in Calm     85% 0.00 in WeatherDisplay:10.37 W/m2 CLR
22:10 73.6 °F 68.1 °F 30.05 in Calm   1.0 mph 83% 0.00 in WeatherDisplay:10.37 W/m2 CLR
22:20 73.1 °F 68.3 °F 30.05 in Calm     85% 0.01 in WeatherDisplay:10.37 W/m2 RA
22:30 71.8 °F 67.7 °F 30.06 in Calm   1.0 mph 87% 0.02 in WeatherDisplay:10.37 W/m2 RA
22:40 71.1 °F 67.7 °F 30.06 in Calm   1.0 mph 89% 0.04 in WeatherDisplay:10.37 W/m2 RA
22:50 70.2 °F 66.8 °F 30.07 in Calm   1.0 mph 89% 0.10 in WeatherDisplay:10.37 W/m2 RA
23:00 69.6 °F 66.2 °F 30.08 in Calm   1.0 mph 89% 0.10 in WeatherDisplay:10.37 W/m2 RA
23:10 69.0 °F 65.9 °F 30.07 in Calm   1.0 mph 90% 0.13 in WeatherDisplay:10.37 W/m2 RA
23:20 68.6 °F 65.9 °F 30.08 in Calm   1.0 mph 91% 0.08 in WeatherDisplay:10.37 W/m2 RA
23:30 68.5 °F 65.8 °F 30.07 in Calm   1.0 mph 91% 0.03 in WeatherDisplay:10.37 W/m2 CLR
23:40 68.5 °F 66.1 °F 30.07 in Calm     92% 0.01 in WeatherDisplay:10.37 W/m2 CLR
23:50 68.6 °F 66.2 °F 30.07 in Calm     92% 0.00 in WeatherDisplay:10.37 W/m2 CLR
Piedmont Bend
Compliments of Weather Underground - 4 mb